createdAt,value
2023-07-04T03:10:24.985Z,16.70
2023-07-04T03:12:52.363Z,20.50
2023-07-04T03:15:19.041Z,22.50
2023-07-04T03:17:49.623Z,18.20
2023-07-04T03:20:17.247Z,16.00
2023-07-04T03:22:46.051Z,21.00
2023-07-04T03:25:16.283Z,19.90
2023-07-04T03:27:43.747Z,18.50
2023-07-04T03:30:12.548Z,20.30
2023-07-04T03:32:40.657Z,18.90
2023-07-04T03:35:08.615Z,17.70
2023-07-04T03:37:38.600Z,14.90
2023-07-04T03:40:10.391Z,15.90
2023-07-04T03:42:39.413Z,20.40
2023-07-04T03:45:07.589Z,17.40
2023-07-04T03:47:34.836Z,15.80
2023-07-04T03:50:05.119Z,20.20
2023-07-04T03:52:34.402Z,22.50
2023-07-04T03:55:03.956Z,15.10
2023-07-04T03:57:30.987Z,15.70
2023-07-04T03:59:59.503Z,14.60
2023-07-04T04:02:26.249Z,20.00
2023-07-04T04:04:53.290Z,13.90
2023-07-04T04:07:20.302Z,21.60
2023-07-04T04:09:47.385Z,18.80
2023-07-04T04:12:14.220Z,24.60
2023-07-04T04:14:41.279Z,20.10
2023-07-04T04:17:12.163Z,18.30
2023-07-04T04:19:39.078Z,14.90
2023-07-04T04:22:05.858Z,21.30
2023-07-04T04:24:33.146Z,15.30
2023-07-04T04:27:03.891Z,20.90
2023-07-04T04:29:31.816Z,16.00
2023-07-04T04:31:58.713Z,16.20
2023-07-04T04:34:26.330Z,18.80
2023-07-04T04:36:53.668Z,19.20
2023-07-04T04:39:23.790Z,19.70
2023-07-04T04:41:53.215Z,15.90
2023-07-04T04:44:21.126Z,16.50
2023-07-04T04:46:50.479Z,22.40
2023-07-04T04:49:18.005Z,16.30
2023-07-04T04:51:45.616Z,16.60
2023-07-04T04:54:14.133Z,13.80
2023-07-04T04:56:41.043Z,16.90
2023-07-04T04:59:12.485Z,17.70
2023-07-04T05:01:39.849Z,15.30
2023-07-04T05:04:07.158Z,16.90
2023-07-04T05:06:34.282Z,14.30
2023-07-04T05:09:01.107Z,13.30
2023-07-04T05:11:28.191Z,12.90
2023-07-04T05:13:55.259Z,17.10
2023-07-04T05:16:22.423Z,12.70
2023-07-04T05:18:51.812Z,13.40
2023-07-04T05:21:23.706Z,10.90
2023-07-04T05:23:52.770Z,11.20
2023-07-04T05:26:25.378Z,13.30
2023-07-04T05:28:54.624Z,12.90
2023-07-04T05:31:27.324Z,16.00
2023-07-04T05:33:55.736Z,10.90
2023-07-04T05:36:27.175Z,12.20
2023-07-04T05:39:00.389Z,10.90
2023-07-04T05:41:29.378Z,15.20
2023-07-04T05:43:57.784Z,11.30
2023-07-04T05:46:30.030Z,16.80
2023-07-04T05:48:59.323Z,15.30
2023-07-04T05:51:26.384Z,13.90
2023-07-04T05:53:53.814Z,11.70
2023-07-04T05:56:26.747Z,12.20
2023-07-04T05:58:56.316Z,11.70
2023-07-04T06:01:30.341Z,12.50
2023-07-04T06:03:59.661Z,16.70
2023-07-04T06:06:30.767Z,13.10
2023-07-04T06:09:03.524Z,10.00
2023-07-04T06:11:53.950Z,9.60
2023-07-04T06:14:28.923Z,12.00
2023-07-04T06:17:00.638Z,10.50
2023-07-04T06:27:56.482Z,7.10
2023-07-04T06:30:30.373Z,11.20
2023-07-04T06:32:59.646Z,8.40
2023-07-04T06:35:33.632Z,8.90
2023-07-04T06:38:00.466Z,10.40
2023-07-04T06:40:27.692Z,11.20
2023-07-04T06:42:54.488Z,11.30
2023-07-04T06:45:23.598Z,11.10
2023-07-04T06:47:50.633Z,13.30
2023-07-04T06:50:18.110Z,11.00
2023-07-04T06:52:44.737Z,11.10
2023-07-04T06:55:12.731Z,8.90
2023-07-04T06:57:39.539Z,7.20
2023-07-04T07:00:06.951Z,10.10
2023-07-04T07:02:35.707Z,7.30
2023-07-04T07:05:05.712Z,5.90
2023-07-04T07:07:32.621Z,8.70
2023-07-04T07:09:59.698Z,6.10
2023-07-04T07:12:30.799Z,6.20
2023-07-04T07:14:57.760Z,8.80
2023-07-04T07:17:26.549Z,6.00
2023-07-04T07:37:44.482Z,7.50
2023-07-04T07:40:18.629Z,11.60
2023-07-04T07:42:46.263Z,6.80
2023-07-04T07:45:15.542Z,7.00
2023-07-04T07:47:42.836Z,13.30
2023-07-04T07:50:09.633Z,4.20
2023-07-04T07:52:36.558Z,6.20
2023-07-04T07:55:06.454Z,8.80
2023-07-04T07:57:32.965Z,5.30
2023-07-04T08:00:01.854Z,5.50
2023-07-04T08:02:28.476Z,7.00
2023-07-04T11:38:17.593Z,8.40
2023-07-04T11:40:49.589Z,8.40
2023-07-04T11:43:25.363Z,13.10
2023-07-04T11:46:03.195Z,8.70
2023-07-04T11:48:32.868Z,10.80
2023-07-04T11:51:11.807Z,9.60
2023-07-04T11:53:49.194Z,9.50
2023-07-04T11:56:23.834Z,8.40
2023-07-04T12:16:06.842Z,9.00
2023-07-04T12:18:38.388Z,11.10
2023-07-04T12:21:04.906Z,9.80
2023-07-04T12:23:34.450Z,11.30
2023-07-04T12:26:01.164Z,8.90
2023-07-04T12:28:31.859Z,10.40
2023-07-04T12:33:46.096Z,12.90
2023-07-04T12:36:20.041Z,13.60
2023-07-04T12:38:51.410Z,11.60
2023-07-04T12:41:25.963Z,10.90
2023-07-04T12:51:44.957Z,12.50
2023-07-04T12:54:15.747Z,13.80
2023-07-04T12:56:48.469Z,12.40
2023-07-04T12:59:36.659Z,14.80
2023-07-04T13:02:14.505Z,12.90
2023-07-04T13:04:44.780Z,12.90
2023-07-04T13:07:14.328Z,12.10
2023-07-04T13:09:43.413Z,13.20
2023-07-04T13:27:28.772Z,22.90
2023-07-04T13:52:34.512Z,17.60
2023-07-04T13:55:04.470Z,19.00
2023-07-04T13:57:32.616Z,16.50
2023-07-04T14:00:02.819Z,18.80
2023-07-04T14:07:37.072Z,15.40
2023-07-04T14:10:05.908Z,15.40
2023-07-04T14:12:33.854Z,17.90
2023-07-04T16:38:44.949Z,24.80
2023-07-04T16:41:15.336Z,23.80
2023-07-04T16:43:43.377Z,23.10
2023-07-04T16:46:15.140Z,25.50
2023-07-04T16:48:43.339Z,26.20
2023-07-04T16:51:11.261Z,28.60
2023-07-04T16:53:41.657Z,24.70
2023-07-04T16:56:09.845Z,26.20
2023-07-04T16:58:40.608Z,22.70
2023-07-04T17:01:11.342Z,21.90
2023-07-04T17:03:39.560Z,24.30
2023-07-04T17:06:09.675Z,21.50
2023-07-04T17:08:39.613Z,22.20
2023-07-04T17:11:10.340Z,25.70
2023-07-04T17:13:41.604Z,26.80
2023-07-04T17:16:12.825Z,22.90
2023-07-04T17:18:45.642Z,28.40
2023-07-04T17:21:13.686Z,29.40
2023-07-04T17:23:44.377Z,24.60
2023-07-04T17:26:12.509Z,22.00
2023-07-04T17:28:40.660Z,21.70
2023-07-04T17:31:10.381Z,24.00
2023-07-04T17:33:38.538Z,22.00
2023-07-04T17:36:09.694Z,22.50
2023-07-04T17:38:40.409Z,21.20
2023-07-04T17:41:11.665Z,20.60
2023-07-04T17:43:41.204Z,24.30
2023-07-04T17:46:13.688Z,24.90
2023-07-04T17:48:52.730Z,20.50
2023-07-04T17:51:23.773Z,21.00
2023-07-04T17:53:52.400Z,24.10
2023-07-04T17:56:28.833Z,22.70
2023-07-04T17:59:00.661Z,22.70
2023-07-04T18:01:29.514Z,20.20
2023-07-04T18:03:57.713Z,19.80
2023-07-04T18:06:27.982Z,22.30
2023-07-04T18:08:55.951Z,23.60
2023-07-04T18:11:27.965Z,22.80
2023-07-04T18:13:58.924Z,24.10
2023-07-04T18:16:31.508Z,21.90
2023-07-04T18:19:01.705Z,22.40
2023-07-04T18:21:34.590Z,24.40
2023-07-04T18:24:04.284Z,20.90
2023-07-04T18:26:34.492Z,22.20
2023-07-04T18:29:08.288Z,20.90
2023-07-04T18:31:36.728Z,22.70
2023-07-04T18:34:07.479Z,22.20
2023-07-04T18:36:37.672Z,20.10
2023-07-04T18:39:06.976Z,22.70
2023-07-04T18:41:41.999Z,23.70
2023-07-04T18:44:11.075Z,26.60
2023-07-04T18:46:40.997Z,24.60
2023-07-04T18:49:09.816Z,25.10
2023-07-04T18:51:40.838Z,23.20
2023-07-04T18:54:16.271Z,26.00
2023-07-04T18:56:46.452Z,22.00
2023-07-04T18:59:14.899Z,25.80
2023-07-04T19:01:44.286Z,25.90
2023-07-04T19:04:12.459Z,22.60
2023-07-04T19:06:43.498Z,24.00
2023-07-04T19:09:11.752Z,23.00
2023-07-04T19:11:45.710Z,23.80
2023-07-04T19:14:24.506Z,24.00
2023-07-04T19:16:59.616Z,25.40
2023-07-04T19:19:33.736Z,24.80
2023-07-04T19:22:09.156Z,23.90
2023-07-04T19:24:41.960Z,25.80
2023-07-04T19:27:15.746Z,26.30
2023-07-04T19:29:50.476Z,22.80
2023-07-04T19:32:18.917Z,21.70
2023-07-04T19:34:50.170Z,27.90
2023-07-04T19:37:19.749Z,25.20
2023-07-04T19:39:48.174Z,24.10
2023-07-04T19:42:16.199Z,21.90
2023-07-04T19:44:44.462Z,24.10
2023-07-04T19:47:12.715Z,26.70
2023-07-04T19:49:40.985Z,28.50
2023-07-04T20:07:08.009Z,28.80
2023-07-04T20:09:35.836Z,26.90
2023-07-04T20:12:07.376Z,24.60
2023-07-04T20:14:35.355Z,26.80
2023-07-04T20:17:03.383Z,27.10
2023-07-04T20:19:31.334Z,27.20
